createdAt,value
2023-02-13T00:00:43.940Z,5.40
2023-02-13T00:05:35.655Z,5.38
2023-02-13T00:10:27.342Z,5.36
2023-02-13T00:15:19.134Z,5.37
2023-02-13T00:20:12.520Z,5.37
2023-02-13T00:25:05.771Z,5.37
2023-02-13T00:29:57.436Z,5.38
2023-02-13T00:34:49.338Z,5.36
2023-02-13T00:39:42.099Z,5.36
2023-02-13T00:44:34.111Z,5.37
2023-02-13T00:49:26.093Z,5.38
2023-02-13T00:54:17.918Z,5.37
2023-02-13T00:59:09.636Z,5.38
2023-02-13T01:04:01.482Z,5.38
2023-02-13T01:08:53.294Z,5.41
2023-02-13T01:13:46.657Z,5.40
2023-02-13T01:18:39.059Z,5.41
2023-02-13T01:23:37.772Z,5.42
2023-02-13T01:28:29.739Z,5.46
2023-02-13T01:33:22.784Z,5.48
2023-02-13T01:38:15.428Z,5.47
2023-02-13T01:43:10.198Z,5.49
2023-02-13T01:48:09.661Z,5.48
2023-02-13T01:53:32.087Z,5.51
2023-02-13T01:58:29.208Z,5.50
2023-02-13T02:03:28.280Z,5.49
2023-02-13T02:08:20.501Z,5.51
2023-02-13T02:13:20.261Z,5.52
2023-02-13T02:18:19.917Z,5.56
2023-02-13T02:23:30.603Z,5.57
2023-02-13T02:28:50.524Z,5.56
2023-02-13T02:33:57.379Z,5.53
2023-02-13T02:39:02.964Z,5.51
2023-02-13T02:44:16.851Z,5.52
2023-02-13T02:49:33.829Z,5.56
2023-02-13T02:55:09.568Z,5.56
2023-02-13T03:00:20.331Z,5.56
2023-02-13T03:05:45.692Z,5.57
2023-02-13T03:10:58.108Z,5.59
2023-02-13T03:16:16.459Z,5.59
2023-02-13T03:21:44.920Z,5.60
2023-02-13T03:26:51.652Z,5.61
2023-02-13T03:32:03.515Z,5.63
2023-02-13T03:37:30.025Z,5.60
2023-02-13T03:42:36.013Z,5.60
2023-02-13T03:47:27.906Z,5.63
2023-02-13T03:52:26.432Z,5.61
2023-02-13T03:57:40.431Z,5.62
2023-02-13T04:02:38.287Z,5.66
2023-02-13T04:07:30.739Z,5.65
2023-02-13T04:12:36.778Z,5.67
2023-02-13T04:17:36.893Z,5.71
2023-02-13T04:22:28.644Z,5.73
2023-02-13T04:27:20.527Z,5.74
2023-02-13T04:32:13.860Z,5.73
2023-02-13T04:37:05.633Z,5.73
2023-02-13T04:41:57.737Z,5.77
2023-02-13T04:46:50.814Z,5.74
2023-02-13T04:51:42.858Z,5.77
2023-02-13T04:56:34.656Z,5.79
2023-02-13T05:01:32.529Z,5.80
2023-02-13T05:06:24.499Z,5.80
2023-02-13T05:11:16.567Z,5.80
2023-02-13T05:16:08.658Z,5.77
2023-02-13T05:21:19.105Z,5.79
2023-02-13T05:26:10.832Z,5.79
2023-02-13T05:31:02.900Z,5.80
2023-02-13T05:35:54.754Z,5.78
2023-02-13T05:40:46.448Z,5.76
2023-02-13T05:45:38.075Z,5.77
2023-02-13T05:50:29.728Z,5.75
2023-02-13T05:55:21.579Z,5.76
2023-02-13T06:00:13.921Z,5.76
2023-02-13T06:05:06.063Z,5.72
2023-02-13T06:09:59.645Z,5.74
2023-02-13T06:14:51.636Z,5.70
2023-02-13T06:19:43.438Z,5.69
2023-02-13T06:24:35.420Z,5.68
2023-02-13T06:29:27.186Z,5.68
2023-02-13T06:34:18.866Z,5.69
2023-02-13T06:39:11.377Z,5.68
2023-02-13T06:44:03.064Z,5.74
2023-02-13T06:48:54.786Z,5.70
2023-02-13T06:53:46.475Z,5.72
2023-02-13T06:58:40.151Z,5.74
2023-02-13T07:03:31.947Z,5.70
2023-02-13T07:08:23.961Z,5.70
2023-02-13T07:13:15.708Z,5.69
2023-02-13T07:18:07.496Z,5.69
2023-02-13T07:23:04.056Z,5.69
2023-02-13T07:27:56.237Z,5.68
2023-02-13T07:32:50.654Z,5.66
2023-02-13T07:37:42.400Z,5.67
2023-02-13T07:42:34.887Z,5.67
2023-02-13T07:47:26.662Z,5.62
2023-02-13T07:52:18.430Z,5.63
2023-02-13T07:57:10.211Z,5.65
2023-02-13T08:02:01.948Z,5.65
2023-02-13T08:06:53.709Z,5.67
2023-02-13T08:11:54.298Z,5.73
2023-02-13T08:16:46.185Z,5.73
2023-02-13T08:21:38.540Z,5.76
2023-02-13T08:26:31.965Z,5.80
2023-02-13T08:31:23.953Z,5.81
2023-02-13T08:36:15.826Z,5.82
2023-02-13T08:41:07.774Z,5.83
2023-02-13T08:46:01.100Z,5.83
2023-02-13T08:50:53.450Z,5.85
2023-02-13T08:55:53.521Z,5.87
2023-02-13T09:00:45.210Z,5.92
2023-02-13T09:05:36.991Z,5.94
2023-02-13T09:10:28.816Z,5.95
2023-02-13T09:15:20.720Z,5.96
2023-02-13T09:20:14.032Z,6.00
2023-02-13T09:25:06.904Z,6.03
2023-02-13T09:29:58.600Z,6.07
2023-02-13T09:34:50.309Z,6.09
2023-02-13T09:39:42.251Z,6.13
2023-02-13T09:44:43.486Z,6.25
2023-02-13T09:49:39.021Z,6.32
2023-02-13T09:54:32.297Z,6.42
2023-02-13T09:59:23.948Z,6.54
2023-02-13T10:04:52.890Z,6.64
2023-02-13T10:09:55.431Z,6.70
2023-02-13T10:15:00.380Z,6.78
2023-02-13T10:20:03.754Z,6.79
2023-02-13T10:25:01.554Z,6.80
2023-02-13T10:30:09.357Z,6.95
2023-02-13T10:35:04.235Z,7.37
2023-02-13T10:39:56.365Z,7.85
2023-02-13T10:45:30.060Z,7.92
2023-02-13T10:50:40.162Z,7.98
2023-02-13T10:55:51.492Z,8.13
2023-02-13T11:00:56.406Z,8.21
2023-02-13T11:05:49.785Z,8.29
2023-02-13T11:10:41.566Z,8.26
2023-02-13T11:15:33.504Z,8.01
2023-02-13T11:20:39.905Z,7.91
2023-02-13T11:25:31.680Z,7.85
2023-02-13T11:30:23.445Z,7.95
2023-02-13T11:35:36.618Z,7.85
2023-02-13T11:40:32.465Z,7.90
2023-02-13T11:45:26.222Z,8.09
2023-02-13T11:50:32.537Z,8.29
2023-02-13T11:55:33.632Z,8.58
2023-02-13T12:00:30.216Z,8.94
2023-02-13T12:05:24.858Z,9.04
2023-02-13T12:10:23.486Z,9.23
2023-02-13T12:15:25.565Z,9.17
2023-02-13T12:20:18.210Z,9.01
2023-02-13T12:25:19.438Z,8.93
2023-02-13T12:30:29.166Z,9.05
2023-02-13T12:35:50.295Z,9.18
2023-02-13T12:41:13.013Z,9.28
2023-02-13T12:46:50.141Z,9.38
2023-02-13T12:52:10.822Z,9.47
2023-02-13T12:57:11.039Z,9.50
2023-02-13T13:02:11.810Z,9.58
2023-02-13T13:07:37.834Z,9.73
2023-02-13T13:13:00.785Z,9.65
2023-02-13T13:18:04.510Z,9.65
2023-02-13T13:23:26.462Z,9.70
2023-02-13T13:28:26.232Z,9.65
2023-02-13T13:33:20.824Z,9.59
2023-02-13T13:38:19.626Z,9.56
2023-02-13T13:43:41.430Z,9.51
2023-02-13T13:48:54.121Z,9.47
2023-02-13T13:54:19.522Z,9.34
2023-02-13T13:59:18.456Z,9.16
2023-02-13T14:04:31.919Z,9.10
2023-02-13T14:09:27.983Z,9.08
2023-02-13T14:14:29.015Z,9.05
2023-02-13T14:19:29.571Z,9.02
2023-02-13T14:24:24.253Z,9.04
2023-02-13T14:29:18.611Z,9.03
2023-02-13T14:34:15.072Z,8.96
2023-02-13T14:39:33.595Z,8.99
2023-02-13T14:44:32.507Z,8.97
2023-02-13T14:49:37.242Z,8.99
2023-02-13T14:54:34.537Z,9.02
2023-02-13T14:59:35.277Z,8.99
2023-02-13T15:04:49.334Z,8.99
2023-02-13T15:09:48.577Z,8.95
2023-02-13T15:14:40.316Z,8.94
2023-02-13T15:19:34.609Z,8.92
2023-02-13T15:24:27.948Z,8.90
2023-02-13T15:29:29.337Z,8.88
2023-02-13T15:34:34.481Z,8.85
2023-02-13T15:39:31.378Z,8.84
2023-02-13T15:44:27.672Z,8.82
2023-02-13T15:49:25.714Z,8.82
2023-02-13T15:54:27.929Z,8.75
2023-02-13T15:59:21.447Z,8.76
2023-02-13T16:04:15.846Z,8.77
2023-02-13T16:09:07.709Z,8.78
2023-02-13T16:13:59.394Z,8.76
2023-02-13T16:18:52.344Z,8.65
2023-02-13T16:23:45.687Z,8.59
2023-02-13T16:28:37.974Z,8.52
2023-02-13T16:33:35.884Z,8.47
2023-02-13T16:38:46.269Z,8.44
2023-02-13T16:43:49.172Z,8.35
2023-02-13T16:48:59.879Z,8.28
2023-02-13T16:53:58.356Z,8.18
2023-02-13T16:58:50.445Z,8.07
2023-02-13T17:03:42.421Z,8.00
2023-02-13T17:08:34.201Z,7.94
2023-02-13T17:13:25.938Z,7.86
2023-02-13T17:18:17.925Z,7.75
2023-02-13T17:23:17.490Z,7.63
2023-02-13T17:28:15.252Z,7.56
2023-02-13T17:33:14.785Z,7.46
2023-02-13T17:38:08.404Z,7.38
2023-02-13T17:43:00.378Z,7.33
2023-02-13T17:47:52.108Z,7.25
2023-02-13T17:52:45.978Z,7.19
2023-02-13T17:57:37.696Z,7.11
2023-02-13T18:02:29.461Z,7.05
2023-02-13T18:07:21.818Z,6.96
2023-02-13T18:12:20.008Z,6.90
2023-02-13T18:17:11.917Z,6.87
2023-02-13T18:22:04.949Z,6.75
2023-02-13T18:26:56.867Z,6.68
2023-02-13T18:31:51.270Z,6.59
2023-02-13T18:36:43.139Z,6.54
2023-02-13T18:41:34.922Z,6.44
2023-02-13T18:46:26.740Z,6.41
2023-02-13T18:51:18.658Z,6.32
2023-02-13T18:56:12.082Z,6.24
2023-02-13T19:01:12.615Z,6.17
2023-02-13T19:06:09.492Z,6.09
2023-02-13T19:11:05.037Z,6.01
2023-02-13T19:15:56.846Z,5.92
2023-02-13T19:20:48.565Z,5.86
2023-02-13T19:25:40.236Z,5.82
2023-02-13T19:30:32.017Z,5.73
2023-02-13T19:35:24.693Z,5.67
2023-02-13T19:40:16.441Z,5.64
2023-02-13T19:45:08.634Z,5.57
2023-02-13T19:50:00.468Z,5.51
2023-02-13T19:54:54.195Z,5.48
2023-02-13T19:59:45.919Z,5.48
2023-02-13T20:04:39.349Z,5.46
2023-02-13T20:09:31.138Z,5.47
2023-02-13T20:14:22.818Z,5.45
2023-02-13T20:19:14.822Z,5.42
2023-02-13T20:24:06.896Z,5.38
2023-02-13T20:28:59.741Z,5.34
2023-02-13T20:33:52.540Z,5.34
2023-02-13T20:38:45.115Z,5.35
2023-02-13T20:43:37.432Z,5.33
2023-02-13T20:48:29.271Z,5.34
2023-02-13T20:53:21.432Z,5.34
2023-02-13T20:58:13.222Z,5.32
2023-02-13T21:03:05.057Z,5.30
2023-02-13T21:07:57.002Z,5.28
2023-02-13T21:12:48.672Z,5.27
2023-02-13T21:17:41.926Z,5.28
2023-02-13T21:22:35.093Z,5.29
2023-02-13T21:27:28.496Z,5.33
2023-02-13T21:32:20.987Z,5.34
2023-02-13T21:37:12.724Z,5.34
2023-02-13T21:42:04.971Z,5.33
2023-02-13T21:46:56.746Z,5.28
2023-02-13T21:51:48.541Z,5.23
2023-02-13T21:56:42.455Z,5.20
2023-02-13T22:01:37.574Z,5.19
2023-02-13T22:06:31.731Z,5.18
2023-02-13T22:11:24.173Z,5.16
2023-02-13T22:16:16.038Z,5.15
2023-02-13T22:21:09.983Z,5.14
2023-02-13T22:26:02.354Z,5.14
2023-02-13T22:30:55.001Z,5.13
2023-02-13T22:35:46.861Z,5.12
2023-02-13T22:40:39.056Z,5.11
2023-02-13T22:45:31.411Z,5.06
2023-02-13T22:50:23.077Z,5.03
2023-02-13T22:55:14.856Z,5.00
2023-02-13T23:00:09.321Z,4.95
2023-02-13T23:05:01.136Z,4.90
2023-02-13T23:09:52.913Z,4.82
2023-02-13T23:14:44.554Z,4.77
2023-02-13T23:19:36.501Z,4.71
2023-02-13T23:24:31.323Z,4.67
2023-02-13T23:29:23.072Z,4.64
2023-02-13T23:34:14.908Z,4.58
2023-02-13T23:39:08.392Z,4.58
2023-02-13T23:44:00.137Z,4.57
2023-02-13T23:48:51.791Z,4.54
2023-02-13T23:53:43.489Z,4.51
2023-02-13T23:58:35.262Z,4.47
